Startpagina
METAR-TAF:

METAR-TAF

Vliegvelden :

Boston, Massachusetts, Verenigde Staten

Internationale luchthaven Boston

breedte: 42-21-38N, lengte: 071-00-38W, hoogte: 6 m

Actueel weer

Dit bericht is 26 minuten geleden gemaakt, om 11:54 UTC
Wind 4 kt uit het zuidzuidwesten
Temperatuur 12°C
Vochtigheid 62%
Druk 1025 hPa
Zicht: 16.1 km
Weinig wolken op 10000 ft

METAR: KBOS 211154Z 20004KT 10SM FEW100 12/05 A3026 RMK AO2 SLP247 T01220050 10144 20106 53014

Tijdstip: 08:20 (12:20 UTC)

Verwachting

Dit bericht is 58 minuten geleden gemaakt, om 11:22 UTC
Verwachting geldig van 21 om 12 UTC tot 22 om 18 UTC
Wind 7 kt uit het westzuidwesten
Zicht: 10 km
Onbewolkt
Van 22 om 0200 UTC
Wind 6 kt uit het westen
Zicht: 10 km
Onbewolkt

TAF: KBOS 211122Z 2112/2218 25007KT P6SM SKC FM220200 27006KT P6SM SKC

Waarnemingen en weersverwachtingen van meer dan 4000 vliegvelden (METAR en TAF).

De beschikbare stations zijn de gele en rode punten op de kaart.

Ga met uw muis naar het station om de naam te zien.

Klik dan om waarnemingen en weersverwachtingen te zien.

kaart wijzigen: klik op de groene knoppen met een zwart kruis om in te zoomen, op de groene knop met een streepje om uit te zoomen of op de groene pijlen voor aangrenzende kaarten.


METAR-TAF: